Time;durP1;ratioP1;P1;durP2;ratioP2;P2;SDS_P1;SDS_P2;PMS_P1;PMS_P2;Temp;Humidity;BMP_temperature;BMP_pressure;BME280_temperature;BME280_humidity;BME280_pressure;Samples;Min_cycle;Max_cycle;Signal;HPM_P1;HPM_P2
2021/10/11 00:02:00;;;;;;;;;68.50;54.25;;;;;;;;5013201;28;46930;-74
2021/10/11 00:04:25;;;;;;;;;67.50;53.50;;;;;;;;5014841;28;45232;-72
2021/10/11 00:06:50;;;;;;;;;67.00;54.50;;;;;;;;5015163;28;45221;-79
2021/10/11 00:09:16;;;;;;;;;67.75;52.25;;;;;;;;5016024;28;45310;-77
2021/10/11 00:11:41;;;;;;;;;69.75;55.25;;;;;;;;5013608;28;47973;-74
2021/10/11 00:14:06;;;;;;;;;71.75;54.50;;;;;;;;5013486;28;45192;-72
2021/10/11 00:16:31;;;;;;;;;72.25;54.25;;;;;;;;5015053;28;45258;-70
2021/10/11 00:18:57;;;;;;;;;66.00;52.50;;;;;;;;5015953;28;45516;-70
2021/10/11 00:21:22;;;;;;;;;66.00;52.00;;;;;;;;5017683;28;46163;-70
2021/10/11 00:23:47;;;;;;;;;70.50;56.00;;;;;;;;5018537;28;45370;-70
2021/10/11 00:26:13;;;;;;;;;67.50;52.25;;;;;;;;5018850;28;45365;-72
2021/10/11 00:28:38;;;;;;;;;72.00;58.00;;;;;;;;5019647;28;45370;-73
2021/10/11 00:31:03;;;;;;;;;67.25;52.75;;;;;;;;5017190;28;47397;-71
2021/10/11 00:33:29;;;;;;;;;72.75;56.25;;;;;;;;5018496;28;45922;-73
2021/10/11 00:35:54;;;;;;;;;72.00;54.25;;;;;;;;5018224;28;45461;-76
2021/10/11 00:38:19;;;;;;;;;72.00;56.00;;;;;;;;5017392;28;45666;-69
2021/10/11 00:40:44;;;;;;;;;75.75;56.50;;;;;;;;5018809;28;46306;-79
2021/10/11 00:43:10;;;;;;;;;74.25;57.50;;;;;;;;5018543;28;45449;-74
2021/10/11 00:45:35;;;;;;;;;69.25;55.75;;;;;;;;5019173;28;45427;-76
2021/10/11 00:48:00;;;;;;;;;76.75;58.50;;;;;;;;5017895;28;45578;-78
2021/10/11 00:50:25;;;;;;;;;72.25;55.75;;;;;;;;5017802;28;46592;-75
2021/10/11 00:52:51;;;;;;;;;72.25;59.25;;;;;;;;5018049;28;45395;-76
2021/10/11 00:55:16;;;;;;;;;74.25;55.00;;;;;;;;5018361;28;45360;-75
2021/10/11 00:57:42;;;;;;;;;71.25;57.75;;;;;;;;5018070;28;45240;-73
2021/10/11 01:00:07;;;;;;;;;77.00;58.50;;;;;;;;5018091;28;46084;-75
2021/10/11 01:02:33;;;;;;;;;75.25;60.50;;;;;;;;5017503;28;45387;-76
2021/10/11 01:04:58;;;;;;;;;74.50;64.00;;;;;;;;5017536;28;45185;-77
2021/10/11 01:07:24;;;;;;;;;74.25;61.75;;;;;;;;5017862;28;45314;-76
2021/10/11 01:09:49;;;;;;;;;77.75;58.50;;;;;;;;5017441;28;46198;-70
2021/10/11 01:12:14;;;;;;;;;75.75;58.25;;;;;;;;5015679;28;45420;-74
2021/10/11 01:14:40;;;;;;;;;76.50;66.00;;;;;;;;5017206;28;45326;-73
2021/10/11 01:17:05;;;;;;;;;76.25;65.25;;;;;;;;5017424;28;45205;-70
2021/10/11 01:19:30;;;;;;;;;73.00;63.25;;;;;;;;5017044;28;45375;-76
2021/10/11 01:21:56;;;;;;;;;77.25;62.00;;;;;;;;5017033;28;45269;-74
2021/10/11 01:24:21;;;;;;;;;76.25;60.00;;;;;;;;5017447;28;45217;-73
2021/10/11 01:26:46;;;;;;;;;74.00;56.75;;;;;;;;5017335;28;45141;-75
2021/10/11 01:29:13;;;;;;;;;72.00;53.50;;;;;;;;5016982;28;45592;-73
2021/10/11 01:31:39;;;;;;;;;72.00;57.00;;;;;;;;5016248;28;45264;-75
2021/10/11 01:34:05;;;;;;;;;74.25;59.75;;;;;;;;5017173;28;45296;-75
2021/10/11 01:36:30;;;;;;;;;78.00;61.50;;;;;;;;5018335;28;45568;-77
2021/10/11 01:38:56;;;;;;;;;72.00;60.25;;;;;;;;5021949;28;45323;-74
2021/10/11 01:41:22;;;;;;;;;77.25;60.25;;;;;;;;5024690;28;44756;-73
2021/10/11 01:43:47;;;;;;;;;74.00;57.75;;;;;;;;5019889;28;45207;-75
2021/10/11 01:46:12;;;;;;;;;69.50;55.00;;;;;;;;5018089;28;45857;-75
2021/10/11 01:48:38;;;;;;;;;75.50;58.75;;;;;;;;5017278;28;46255;-75
2021/10/11 01:51:03;;;;;;;;;71.75;57.25;;;;;;;;5017175;28;45347;-75
2021/10/11 01:53:28;;;;;;;;;75.25;58.50;;;;;;;;5018204;28;45224;-74
2021/10/11 01:55:53;;;;;;;;;71.50;56.00;;;;;;;;5022569;28;45459;-69
2021/10/11 01:58:19;;;;;;;;;71.50;56.25;;;;;;;;5021835;28;45299;-71
2021/10/11 02:00:44;;;;;;;;;69.25;54.50;;;;;;;;5020095;28;45349;-74
2021/10/11 02:03:09;;;;;;;;;76.00;55.75;;;;;;;;5017480;28;45269;-75
2021/10/11 02:05:35;;;;;;;;;71.00;55.50;;;;;;;;5017707;28;45375;-73
2021/10/11 02:08:01;;;;;;;;;66.25;49.25;;;;;;;;5017176;28;45484;-74
2021/10/11 02:10:26;;;;;;;;;70.00;52.50;;;;;;;;5015628;28;45402;-72
2021/10/11 02:12:51;;;;;;;;;70.75;53.50;;;;;;;;5018219;28;45307;-76
2021/10/11 02:15:17;;;;;;;;;71.50;54.25;;;;;;;;5017048;28;45354;-76
2021/10/11 02:17:42;;;;;;;;;68.00;54.25;;;;;;;;5016628;28;45360;-77
2021/10/11 02:20:08;;;;;;;;;70.50;53.50;;;;;;;;5016402;28;45340;-78
2021/10/11 02:22:33;;;;;;;;;73.00;55.00;;;;;;;;5016343;28;45375;-79
2021/10/11 02:24:58;;;;;;;;;70.75;53.50;;;;;;;;5016557;28;45575;-75
2021/10/11 02:27:23;;;;;;;;;69.25;52.50;;;;;;;;5016422;28;46828;-73
2021/10/11 02:29:49;;;;;;;;;67.00;51.75;;;;;;;;5016486;28;45302;-72
2021/10/11 02:32:14;;;;;;;;;70.50;53.00;;;;;;;;5016481;28;45394;-76
2021/10/11 02:34:39;;;;;;;;;68.00;53.50;;;;;;;;5016347;28;45371;-76
2021/10/11 02:37:04;;;;;;;;;66.75;52.25;;;;;;;;5014761;28;46527;-77
2021/10/11 02:39:30;;;;;;;;;76.50;59.00;;;;;;;;5016171;28;45360;-78
2021/10/11 02:41:55;;;;;;;;;71.25;54.75;;;;;;;;5015871;28;45347;-74
2021/10/11 02:44:20;;;;;;;;;70.00;54.00;;;;;;;;5016998;28;45844;-72
2021/10/11 02:46:45;;;;;;;;;62.50;47.25;;;;;;;;5014739;28;46324;-76
2021/10/11 02:49:11;;;;;;;;;72.00;54.75;;;;;;;;5014461;28;45828;-75
2021/10/11 02:51:36;;;;;;;;;69.00;53.00;;;;;;;;5015899;28;45334;-73
2021/10/11 02:54:01;;;;;;;;;65.00;50.50;;;;;;;;5014770;28;45309;-75
2021/10/11 02:56:26;;;;;;;;;67.25;51.25;;;;;;;;5016018;28;46384;-73
2021/10/11 02:58:52;;;;;;;;;70.50;52.50;;;;;;;;5016864;28;45332;-77
2021/10/11 03:01:17;;;;;;;;;64.50;48.75;;;;;;;;5016431;28;45170;-77
2021/10/11 03:03:42;;;;;;;;;63.25;48.00;;;;;;;;5016129;28;45198;-73
2021/10/11 03:06:07;;;;;;;;;68.50;54.50;;;;;;;;5015663;28;45213;-78
2021/10/11 03:08:33;;;;;;;;;61.25;48.00;;;;;;;;5015667;28;45289;-76
2021/10/11 03:10:58;;;;;;;;;68.25;50.50;;;;;;;;5015811;28;45248;-73
2021/10/11 03:13:24;;;;;;;;;67.50;50.00;;;;;;;;5015004;28;45497;-75
2021/10/11 03:15:49;;;;;;;;;62.75;46.50;;;;;;;;5015554;28;46372;-73
2021/10/11 03:18:14;;;;;;;;;67.50;50.25;;;;;;;;5015871;28;45297;-75
2021/10/11 03:20:39;;;;;;;;;68.75;54.25;;;;;;;;5015774;28;45208;-75
2021/10/11 03:23:05;;;;;;;;;63.50;48.00;;;;;;;;5015991;28;45176;-74
2021/10/11 03:25:30;;;;;;;;;63.00;45.25;;;;;;;;5015674;28;45282;-76
2021/10/11 03:27:55;;;;;;;;;58.50;45.75;;;;;;;;5015693;28;45213;-74
2021/10/11 03:30:20;;;;;;;;;64.00;48.00;;;;;;;;5015625;28;45200;-73
2021/10/11 03:32:46;;;;;;;;;55.00;44.50;;;;;;;;5015938;28;45213;-77
2021/10/11 03:35:11;;;;;;;;;52.00;41.00;;;;;;;;5015438;28;45349;-74
2021/10/11 03:37:36;;;;;;;;;61.00;47.25;;;;;;;;5017590;28;45321;-74
2021/10/11 03:40:02;;;;;;;;;60.00;48.25;;;;;;;;5018080;28;45316;-73
2021/10/11 03:42:27;;;;;;;;;50.50;40.75;;;;;;;;5015846;28;45363;-70
2021/10/11 03:44:52;;;;;;;;;58.50;44.25;;;;;;;;5013938;28;47810;-71
2021/10/11 03:47:17;;;;;;;;;56.75;43.75;;;;;;;;5015188;28;45386;-71
2021/10/11 03:49:42;;;;;;;;;50.25;40.75;;;;;;;;5015374;28;45388;-68
2021/10/11 03:52:08;;;;;;;;;51.75;41.75;;;;;;;;5015360;28;45538;-69
2021/10/11 03:54:33;;;;;;;;;54.75;42.00;;;;;;;;5015717;28;47820;-71
2021/10/11 03:56:58;;;;;;;;;44.75;36.00;;;;;;;;5019624;28;45485;-73
2021/10/11 03:59:23;;;;;;;;;45.50;36.00;;;;;;;;5018748;28;45488;-73
2021/10/11 04:01:49;;;;;;;;;45.00;37.50;;;;;;;;5019109;28;46130;-77
2021/10/11 04:04:14;;;;;;;;;39.50;34.25;;;;;;;;5018458;28;45681;-72
2021/10/11 04:06:39;;;;;;;;;44.75;35.50;;;;;;;;5018164;28;45737;-75
2021/10/11 04:09:05;;;;;;;;;42.00;35.00;;;;;;;;5018575;28;45434;-73
2021/10/11 04:11:31;;;;;;;;;37.25;31.50;;;;;;;;5018421;28;45528;-73
2021/10/11 04:13:57;;;;;;;;;44.25;35.75;;;;;;;;5018578;28;46489;-74
2021/10/11 04:16:22;;;;;;;;;37.00;32.00;;;;;;;;5018209;28;45207;-73
2021/10/11 04:18:47;;;;;;;;;40.50;33.75;;;;;;;;5018276;28;45371;-75
2021/10/11 04:21:13;;;;;;;;;40.00;34.25;;;;;;;;5018363;28;45551;-75
2021/10/11 04:23:38;;;;;;;;;37.50;31.75;;;;;;;;5017886;28;46290;-78
2021/10/11 04:26:03;;;;;;;;;38.75;30.75;;;;;;;;5018027;28;45306;-78
2021/10/11 04:28:29;;;;;;;;;37.00;31.75;;;;;;;;5018885;28;45686;-76
2021/10/11 04:30:54;;;;;;;;;32.75;26.75;;;;;;;;5021771;28;45241;-78
2021/10/11 04:33:23;;;;;;;;;35.00;30.00;;;;;;;;5022892;28;46424;-79
2021/10/11 04:35:49;;;;;;;;;32.25;30.00;;;;;;;;5021582;28;45314;-75
2021/10/11 04:38:14;;;;;;;;;33.25;26.00;;;;;;;;5024715;28;45391;-75
2021/10/11 04:40:39;;;;;;;;;31.75;26.75;;;;;;;;5022562;28;45546;-77
2021/10/11 04:43:05;;;;;;;;;29.00;24.25;;;;;;;;5019190;28;47186;-78
2021/10/11 04:45:31;;;;;;;;;34.00;28.50;;;;;;;;5020493;28;45360;-77
2021/10/11 04:47:59;;;;;;;;;34.00;29.25;;;;;;;;5018532;28;45347;-77
2021/10/11 04:50:25;;;;;;;;;31.00;25.50;;;;;;;;5018522;28;45634;-77
2021/10/11 04:52:50;;;;;;;;;34.75;29.50;;;;;;;;5017920;28;45380;-78
2021/10/11 04:55:16;;;;;;;;;30.50;28.25;;;;;;;;5017669;28;45388;-76
2021/10/11 04:57:41;;;;;;;;;26.75;24.50;;;;;;;;5018086;28;45328;-75
2021/10/11 05:00:06;;;;;;;;;33.25;30.00;;;;;;;;5017829;28;45644;-77
2021/10/11 05:02:32;;;;;;;;;36.50;32.50;;;;;;;;5017697;28;46213;-67
2021/10/11 05:04:57;;;;;;;;;25.75;24.25;;;;;;;;5017853;28;45355;-75
2021/10/11 05:07:22;;;;;;;;;32.00;26.25;;;;;;;;5017496;28;45333;-76
2021/10/11 05:09:47;;;;;;;;;31.25;24.00;;;;;;;;5018027;28;45312;-68
2021/10/11 05:12:12;;;;;;;;;25.50;22.50;;;;;;;;5017128;28;45420;-69
2021/10/11 05:14:38;;;;;;;;;23.25;22.50;;;;;;;;5017278;28;45430;-70
2021/10/11 05:17:03;;;;;;;;;25.75;22.75;;;;;;;;5018629;28;45322;-65
2021/10/11 05:19:28;;;;;;;;;24.00;19.00;;;;;;;;5021531;28;45457;-69
2021/10/11 05:21:57;;;;;;;;;32.50;25.00;;;;;;;;5019962;28;46184;-69
2021/10/11 05:24:25;;;;;;;;;23.25;22.00;;;;;;;;5019551;28;46301;-69
2021/10/11 05:26:51;;;;;;;;;27.25;20.75;;;;;;;;5019034;28;45449;-69
2021/10/11 05:29:17;;;;;;;;;24.00;20.50;;;;;;;;5017085;28;45530;-65
2021/10/11 05:31:42;;;;;;;;;22.50;19.50;;;;;;;;5016895;28;46476;-67
2021/10/11 05:34:07;;;;;;;;;20.50;19.00;;;;;;;;5016847;28;45349;-66
2021/10/11 05:36:32;;;;;;;;;22.75;17.25;;;;;;;;5017704;28;45316;-67
2021/10/11 05:38:58;;;;;;;;;18.75;16.50;;;;;;;;5016983;28;45562;-67
2021/10/11 05:41:23;;;;;;;;;22.00;18.00;;;;;;;;5016237;28;46318;-67
2021/10/11 05:43:48;;;;;;;;;26.25;19.50;;;;;;;;5016001;28;45224;-66
2021/10/11 05:46:13;;;;;;;;;18.50;17.00;;;;;;;;5016463;28;45370;-67
2021/10/11 05:48:39;;;;;;;;;17.75;17.25;;;;;;;;5016803;28;45606;-67
2021/10/11 05:51:04;;;;;;;;;17.25;15.00;;;;;;;;5016717;28;45350;-70
2021/10/11 05:53:30;;;;;;;;;16.00;16.00;;;;;;;;5015335;28;45513;-66
2021/10/11 05:55:55;;;;;;;;;14.00;13.75;;;;;;;;5016424;28;45827;-68
2021/10/11 05:58:20;;;;;;;;;16.25;15.75;;;;;;;;5016105;28;45414;-69
2021/10/11 06:00:46;;;;;;;;;20.75;16.00;;;;;;;;5016157;28;45455;-67
2021/10/11 06:03:11;;;;;;;;;18.50;15.50;;;;;;;;5016165;28;45473;-69
2021/10/11 06:05:36;;;;;;;;;16.25;13.25;;;;;;;;5014948;28;45385;-69
2021/10/11 06:08:01;;;;;;;;;13.50;7.00;;;;;;;;5016786;28;45253;-68
2021/10/11 06:10:27;;;;;;;;;10.00;10.00;;;;;;;;5016096;28;46143;-67
2021/10/11 06:12:52;;;;;;;;;13.00;11.50;;;;;;;;5015985;28;45327;-67
2021/10/11 06:15:17;;;;;;;;;14.25;11.75;;;;;;;;5016195;28;45328;-67
2021/10/11 06:17:43;;;;;;;;;13.00;12.75;;;;;;;;5015692;28;45219;-71
2021/10/11 06:20:08;;;;;;;;;17.00;14.75;;;;;;;;5015708;28;47849;-69
2021/10/11 06:22:33;;;;;;;;;13.00;11.25;;;;;;;;5016205;28;45367;-71
2021/10/11 06:24:59;;;;;;;;;16.50;13.75;;;;;;;;5016004;28;45218;-71
2021/10/11 06:27:27;;;;;;;;;13.50;12.25;;;;;;;;5016349;28;45418;-70
2021/10/11 06:29:52;;;;;;;;;13.50;13.00;;;;;;;;5015974;28;46336;-69
2021/10/11 06:32:17;;;;;;;;;13.75;12.75;;;;;;;;5014364;28;45352;-67
2021/10/11 06:34:42;;;;;;;;;12.25;11.25;;;;;;;;5014558;28;45407;-70
2021/10/11 06:37:09;;;;;;;;;14.00;13.00;;;;;;;;5016149;28;45602;-68
2021/10/11 06:39:34;;;;;;;;;15.50;14.50;;;;;;;;5015797;28;46292;-69
2021/10/11 06:41:59;;;;;;;;;14.00;13.00;;;;;;;;5016083;28;45335;-73
2021/10/11 06:44:25;;;;;;;;;17.75;15.50;;;;;;;;5016189;28;45325;-70
2021/10/11 06:46:50;;;;;;;;;15.25;14.00;;;;;;;;5016149;28;45413;-70
2021/10/11 06:49:16;;;;;;;;;19.25;12.50;;;;;;;;5013983;28;48589;-69
2021/10/11 06:51:41;;;;;;;;;13.75;13.75;;;;;;;;5013872;28;45364;-68
2021/10/11 06:54:06;;;;;;;;;21.00;16.50;;;;;;;;5015697;28;45436;-68
2021/10/11 06:56:31;;;;;;;;;14.50;13.25;;;;;;;;5014196;28;45609;-67
2021/10/11 06:58:57;;;;;;;;;6.75;6.25;;;;;;;;5015238;28;45693;-68
2021/10/11 07:01:22;;;;;;;;;11.75;11.75;;;;;;;;5014001;28;45666;-69
2021/10/11 07:03:47;;;;;;;;;10.75;9.25;;;;;;;;5015191;28;45339;-69
2021/10/11 07:06:17;;;;;;;;;12.75;11.50;;;;;;;;5015701;28;45273;-70
2021/10/11 07:08:42;;;;;;;;;14.25;10.25;;;;;;;;5015080;28;46861;-70
2021/10/11 07:11:08;;;;;;;;;16.00;13.25;;;;;;;;5015049;28;45410;-67
2021/10/11 07:13:34;;;;;;;;;11.25;11.00;;;;;;;;5014061;28;45366;-69
2021/10/11 07:16:03;;;;;;;;;12.00;9.75;;;;;;;;5015412;28;45513;-66
2021/10/11 07:18:28;;;;;;;;;12.75;12.75;;;;;;;;5015490;28;45532;-70
2021/10/11 07:20:53;;;;;;;;;10.75;8.00;;;;;;;;5015999;28;45299;-71
2021/10/11 07:23:18;;;;;;;;;12.50;9.50;;;;;;;;5016263;28;45323;-75
2021/10/11 07:25:43;;;;;;;;;12.25;9.25;;;;;;;;5015626;28;45323;-70
2021/10/11 07:28:09;;;;;;;;;11.50;10.00;;;;;;;;5015325;28;45316;-65
2021/10/11 07:30:34;;;;;;;;;12.75;9.00;;;;;;;;5018830;28;45380;-70
2021/10/11 07:33:00;;;;;;;;;13.50;12.50;;;;;;;;5019755;28;45432;-72
2021/10/11 07:35:26;;;;;;;;;17.50;14.75;;;;;;;;5019005;28;45285;-69
2021/10/11 07:37:51;;;;;;;;;16.25;11.25;;;;;;;;5018488;28;45574;-70
2021/10/11 07:40:17;;;;;;;;;10.75;10.00;;;;;;;;5018324;28;45305;-70
2021/10/11 07:42:42;;;;;;;;;13.25;10.25;;;;;;;;5018267;28;45382;-73
2021/10/11 07:45:08;;;;;;;;;13.50;10.00;;;;;;;;5017182;28;45384;-73
2021/10/11 07:47:33;;;;;;;;;12.00;9.25;;;;;;;;5018119;28;46728;-72
2021/10/11 07:49:58;;;;;;;;;14.75;13.25;;;;;;;;5016952;28;45466;-73
2021/10/11 07:52:23;;;;;;;;;7.75;5.00;;;;;;;;5018244;28;45306;-73
2021/10/11 07:54:49;;;;;;;;;11.75;9.25;;;;;;;;5017108;28;45427;-72
2021/10/11 07:57:14;;;;;;;;;7.75;5.00;;;;;;;;5017983;28;45364;-71
2021/10/11 07:59:39;;;;;;;;;10.50;8.75;;;;;;;;5018425;28;45381;-71
2021/10/11 08:02:04;;;;;;;;;10.25;6.75;;;;;;;;5018284;28;45352;-72
2021/10/11 08:04:29;;;;;;;;;11.00;5.00;;;;;;;;5017086;28;45436;-71
2021/10/11 08:06:55;;;;;;;;;7.25;7.25;;;;;;;;5018174;28;45450;-72
2021/10/11 08:09:20;;;;;;;;;12.75;7.25;;;;;;;;5016421;28;45498;-72
2021/10/11 08:11:46;;;;;;;;;12.50;7.50;;;;;;;;5017972;28;45448;-70
2021/10/11 08:14:12;;;;;;;;;7.25;7.25;;;;;;;;5018175;28;45467;-70
2021/10/11 08:16:38;;;;;;;;;8.00;5.50;;;;;;;;5018463;28;46144;-69
2021/10/11 08:19:03;;;;;;;;;6.75;6.25;;;;;;;;5016597;28;45233;-70
2021/10/11 08:21:28;;;;;;;;;10.00;8.00;;;;;;;;5017579;28;45341;-69
2021/10/11 08:23:54;;;;;;;;;11.50;8.75;;;;;;;;5016573;28;45315;-72
2021/10/11 08:26:19;;;;;;;;;10.50;6.50;;;;;;;;5017392;28;46447;-67
2021/10/11 08:28:45;;;;;;;;;3.50;3.00;;;;;;;;5016178;28;45276;-71
2021/10/11 08:31:11;;;;;;;;;5.00;4.00;;;;;;;;5017909;28;45229;-66
2021/10/11 08:33:36;;;;;;;;;8.25;5.00;;;;;;;;5017738;28;45296;-69
2021/10/11 08:36:02;;;;;;;;;4.00;4.00;;;;;;;;5017381;28;45585;-70
2021/10/11 08:38:27;;;;;;;;;6.75;5.00;;;;;;;;5018002;28;45352;-68
2021/10/11 08:40:53;;;;;;;;;5.00;5.00;;;;;;;;5015747;28;45392;-69
2021/10/11 08:43:18;;;;;;;;;8.25;4.50;;;;;;;;5017986;28;45497;-71
2021/10/11 08:45:47;;;;;;;;;12.25;6.50;;;;;;;;5016260;28;47830;-68
2021/10/11 08:48:12;;;;;;;;;5.00;4.75;;;;;;;;5016387;28;45315;-72
2021/10/11 08:50:37;;;;;;;;;5.50;4.50;;;;;;;;5015976;28;45377;-70
2021/10/11 08:53:03;;;;;;;;;13.25;8.00;;;;;;;;5017486;28;45749;-70
2021/10/11 08:55:29;;;;;;;;;6.75;4.50;;;;;;;;5016931;28;45425;-69
2021/10/11 08:58:01;;;;;;;;;4.00;4.00;;;;;;;;5017308;28;45768;-70
2021/10/11 09:00:27;;;;;;;;;11.00;10.50;;;;;;;;5017315;28;45380;-70
2021/10/11 09:02:53;;;;;;;;;6.00;4.25;;;;;;;;5017553;28;45648;-70
2021/10/11 09:05:26;;;;;;;;;4.50;4.50;;;;;;;;5015834;28;48605;-69
2021/10/11 09:08:00;;;;;;;;;7.00;4.50;;;;;;;;5015424;28;45345;-71
2021/10/11 09:10:26;;;;;;;;;14.25;14.00;;;;;;;;5017074;28;45431;-71
2021/10/11 09:12:51;;;;;;;;;26.75;25.25;;;;;;;;5017196;28;45284;-69
2021/10/11 09:15:17;;;;;;;;;7.75;4.50;;;;;;;;5016741;28;45284;-70
2021/10/11 09:17:49;;;;;;;;;5.00;4.50;;;;;;;;5017129;28;45398;-71
2021/10/11 09:20:15;;;;;;;;;14.50;11.75;;;;;;;;5017331;28;45440;-71
2021/10/11 09:22:43;;;;;;;;;6.50;4.00;;;;;;;;5017224;28;45591;-71
2021/10/11 09:25:09;;;;;;;;;3.00;2.25;;;;;;;;5016650;28;45445;-71
2021/10/11 09:27:44;;;;;;;;;6.25;5.00;;;;;;;;5016787;28;45252;-71
2021/10/11 09:30:11;;;;;;;;;2.00;0.00;;;;;;;;5017096;28;45242;-71
2021/10/11 09:32:36;;;;;;;;;26.25;22.00;;;;;;;;5016884;28;45651;-69
2021/10/11 09:35:10;;;;;;;;;8.75;6.25;;;;;;;;5016274;28;45398;-70
2021/10/11 09:37:36;;;;;;;;;6.00;4.25;;;;;;;;5015137;28;45284;-72
2021/10/11 09:40:02;;;;;;;;;5.75;4.00;;;;;;;;5016337;28;45217;-70
2021/10/11 09:42:28;;;;;;;;;3.50;3.50;;;;;;;;5014755;28;45429;-73
2021/10/11 09:44:54;;;;;;;;;6.00;2.00;;;;;;;;5014889;28;48303;-73
2021/10/11 09:47:40;;;;;;;;;4.50;4.50;;;;;;;;5014952;28;45353;-71
2021/10/11 09:50:07;;;;;;;;;8.50;5.50;;;;;;;;5016629;28;45363;-72
2021/10/11 09:52:33;;;;;;;;;10.00;7.75;;;;;;;;5015995;28;45588;-72
2021/10/11 09:54:58;;;;;;;;;8.50;7.00;;;;;;;;5016823;28;46429;-72
2021/10/11 09:57:24;;;;;;;;;9.00;7.00;;;;;;;;5016120;28;45253;-72
2021/10/11 09:59:50;;;;;;;;;8.50;5.25;;;;;;;;5017073;28;45289;-71
2021/10/11 10:02:17;;;;;;;;;3.75;3.00;;;;;;;;5017366;28;45475;-72
2021/10/11 10:04:43;;;;;;;;;7.00;3.25;;;;;;;;5016584;28;47060;-72
2021/10/11 10:07:11;;;;;;;;;11.25;7.25;;;;;;;;5015048;28;45541;-71
2021/10/11 10:09:39;;;;;;;;;7.75;6.00;;;;;;;;5016464;28;45383;-72
2021/10/11 10:12:05;;;;;;;;;6.00;5.00;;;;;;;;5016947;28;45317;-70
2021/10/11 10:14:33;;;;;;;;;5.75;3.25;;;;;;;;5015906;28;45682;-70
2021/10/11 10:16:59;;;;;;;;;4.00;4.00;;;;;;;;5016140;28;45435;-70
2021/10/11 10:19:42;;;;;;;;;1.25;1.00;;;;;;;;5016203;28;45399;-71
2021/10/11 10:22:14;;;;;;;;;2.75;2.00;;;;;;;;5016510;28;45559;-71
2021/10/11 10:24:40;;;;;;;;;6.25;4.75;;;;;;;;5014473;28;48181;-71
2021/10/11 10:27:09;;;;;;;;;3.25;2.50;;;;;;;;5014029;28;45409;-71
2021/10/11 10:29:45;;;;;;;;;4.75;4.25;;;;;;;;5016327;28;45415;-71
2021/10/11 10:32:11;;;;;;;;;7.00;4.00;;;;;;;;5015965;28;45374;-70
2021/10/11 10:34:36;;;;;;;;;7.50;7.00;;;;;;;;5014220;28;47673;-68
2021/10/11 10:37:08;;;;;;;;;9.50;4.00;;;;;;;;5015773;28;45309;-68
2021/10/11 10:39:38;;;;;;;;;5.75;3.75;;;;;;;;5015775;28;45386;-69
2021/10/11 10:42:03;;;;;;;;;3.75;3.75;;;;;;;;5016137;28;45241;-67
2021/10/11 10:44:29;;;;;;;;;5.50;4.50;;;;;;;;5015955;28;46171;-71
2021/10/11 10:46:55;;;;;;;;;5.00;2.00;;;;;;;;5015743;28;45249;-70
2021/10/11 10:49:43;;;;;;;;;4.00;4.00;;;;;;;;5015581;28;45292;-72
2021/10/11 10:52:16;;;;;;;;;7.00;6.50;;;;;;;;5015506;28;45428;-72
2021/10/11 10:54:43;;;;;;;;;5.00;4.00;;;;;;;;5015201;28;45737;-73
2021/10/11 10:57:10;;;;;;;;;2.50;2.50;;;;;;;;5015423;28;45793;-73
2021/10/11 10:59:36;;;;;;;;;4.50;2.50;;;;;;;;5015706;28;45456;-71
2021/10/11 11:02:02;;;;;;;;;4.50;3.25;;;;;;;;5014175;28;45340;-72
2021/10/11 11:04:28;;;;;;;;;5.50;4.25;;;;;;;;5014826;28;46561;-70
2021/10/11 11:07:06;;;;;;;;;3.50;2.00;;;;;;;;5015037;28;45253;-70
2021/10/11 11:09:38;;;;;;;;;7.75;4.00;;;;;;;;5015090;28;45311;-69
2021/10/11 11:12:04;;;;;;;;;4.50;4.00;;;;;;;;5015126;28;45558;-70
2021/10/11 11:14:29;;;;;;;;;25.50;23.00;;;;;;;;5014917;28;46047;-71
2021/10/11 11:16:54;;;;;;;;;8.25;5.25;;;;;;;;5015139;28;45319;-71
2021/10/11 11:19:19;;;;;;;;;3.75;2.25;;;;;;;;5015412;28;45388;-70
2021/10/11 11:21:54;;;;;;;;;4.75;2.00;;;;;;;;5014029;28;45261;-73
2021/10/11 11:24:19;;;;;;;;;12.50;12.25;;;;;;;;5015243;28;45486;-72
2021/10/11 11:26:45;;;;;;;;;10.75;10.50;;;;;;;;5015156;28;45430;-71
2021/10/11 11:29:14;;;;;;;;;4.50;3.75;;;;;;;;5015301;28;45269;-71
2021/10/11 11:31:39;;;;;;;;;7.00;5.00;;;;;;;;5013607;28;45534;-69
2021/10/11 11:34:04;;;;;;;;;5.25;3.75;;;;;;;;5014701;28;45434;-70
2021/10/11 11:36:29;;;;;;;;;2.00;2.00;;;;;;;;5014923;28;45355;-69
2021/10/11 11:38:54;;;;;;;;;7.75;5.25;;;;;;;;5014877;28;45263;-70
2021/10/11 11:41:20;;;;;;;;;3.50;3.50;;;;;;;;5014047;28;45336;-69
2021/10/11 11:43:45;;;;;;;;;3.75;3.25;;;;;;;;5014459;28;45540;-71
2021/10/11 11:46:12;;;;;;;;;3.75;2.75;;;;;;;;5015024;28;45303;-72
2021/10/11 11:48:38;;;;;;;;;2.00;2.00;;;;;;;;5015253;28;45430;-68
2021/10/11 11:51:08;;;;;;;;;5.00;3.00;;;;;;;;5015320;28;45443;-68
2021/10/11 11:53:35;;;;;;;;;8.00;4.25;;;;;;;;5014899;28;46626;-69
2021/10/11 11:56:01;;;;;;;;;3.25;2.75;;;;;;;;5014856;28;45330;-67
2021/10/11 11:58:32;;;;;;;;;3.25;2.00;;;;;;;;5014443;28;45441;-66
2021/10/11 12:00:59;;;;;;;;;4.00;3.00;;;;;;;;5013713;28;45474;-68
2021/10/11 12:03:26;;;;;;;;;4.25;2.00;;;;;;;;5012895;28;46375;-68
2021/10/11 12:05:53;;;;;;;;;3.25;2.25;;;;;;;;5015126;28;45343;-71
2021/10/11 12:08:19;;;;;;;;;4.00;3.00;;;;;;;;5013964;28;45501;-68
2021/10/11 12:10:55;;;;;;;;;6.25;2.75;;;;;;;;5013530;28;45718;-71
2021/10/11 12:13:20;;;;;;;;;6.25;3.00;;;;;;;;5014685;28;46403;-69
2021/10/11 12:15:45;;;;;;;;;5.25;3.00;;;;;;;;5016629;28;45466;-70
2021/10/11 12:18:11;;;;;;;;;5.25;2.00;;;;;;;;5018328;28;45174;-68
2021/10/11 12:20:47;;;;;;;;;6.00;3.50;;;;;;;;5016738;28;45567;-71
2021/10/11 12:23:13;;;;;;;;;3.00;3.00;;;;;;;;5017436;28;47402;-69
2021/10/11 12:25:38;;;;;;;;;5.75;3.25;;;;;;;;5017619;28;45328;-70
2021/10/11 12:28:17;;;;;;;;;6.00;5.50;;;;;;;;5017878;28;45386;-70
2021/10/11 12:30:44;;;;;;;;;4.75;4.50;;;;;;;;5018224;28;45601;-69
2021/10/11 12:33:18;;;;;;;;;6.25;5.50;;;;;;;;5017706;28;45723;-72
2021/10/11 12:35:58;;;;;;;;;7.50;4.00;;;;;;;;5017634;28;45280;-69
2021/10/11 12:38:32;;;;;;;;;4.00;4.00;;;;;;;;5018155;28;45248;-70
2021/10/11 12:41:06;;;;;;;;;3.75;3.75;;;;;;;;5017970;28;45387;-72
2021/10/11 12:43:31;;;;;;;;;8.75;5.50;;;;;;;;5016174;28;45412;-72
2021/10/11 12:46:03;;;;;;;;;5.25;4.00;;;;;;;;5017721;28;45266;-73
2021/10/11 12:48:28;;;;;;;;;4.50;3.00;;;;;;;;5017688;28;45365;-71
2021/10/11 12:50:54;;;;;;;;;3.75;3.00;;;;;;;;5017754;28;45348;-69
2021/10/11 12:53:29;;;;;;;;;5.25;4.50;;;;;;;;5017634;28;46129;-70
2021/10/11 12:55:55;;;;;;;;;6.25;2.00;;;;;;;;5017828;28;45221;-72
2021/10/11 12:58:24;;;;;;;;;4.00;4.00;;;;;;;;5017594;28;45204;-68
2021/10/11 13:00:50;;;;;;;;;5.75;3.25;;;;;;;;5016675;28;45367;-68
2021/10/11 13:03:16;;;;;;;;;5.00;3.00;;;;;;;;5015596;28;48397;-68
2021/10/11 13:05:41;;;;;;;;;3.50;1.00;;;;;;;;5016861;28;45383;-72
2021/10/11 13:08:07;;;;;;;;;5.00;5.00;;;;;;;;5015537;28;45352;-71
2021/10/11 13:10:32;;;;;;;;;3.00;2.00;;;;;;;;5017417;28;45288;-68
2021/10/11 13:12:57;;;;;;;;;4.25;3.50;;;;;;;;5015416;28;46245;-71
2021/10/11 13:15:23;;;;;;;;;3.50;3.50;;;;;;;;5017205;28;45380;-70
2021/10/11 13:17:48;;;;;;;;;5.00;4.25;;;;;;;;5016954;28;45273;-72
2021/10/11 13:20:13;;;;;;;;;7.50;4.75;;;;;;;;5017305;28;45422;-70
2021/10/11 13:22:39;;;;;;;;;7.50;4.50;;;;;;;;4998836;28;48141;-71
2021/10/11 13:25:05;;;;;;;;;7.00;3.00;;;;;;;;5016746;28;45327;-70
2021/10/11 13:27:30;;;;;;;;;5.00;5.00;;;;;;;;5015505;28;45242;-70
2021/10/11 14:28:56;;;;;;;;;4.00;4.00;;;;;;;;5016017;28;45433;-68
2021/10/11 16:00:45;;;;;;;;;6.25;5.75;;;;;;;;5018852;28;45442;-73
2021/10/11 16:03:28;;;;;;;;;9.50;6.25;;;;;;;;5018106;28;45539;-72
2021/10/11 16:05:54;;;;;;;;;10.50;9.00;;;;;;;;5016512;28;45303;-72
2021/10/11 16:08:19;;;;;;;;;5.75;5.00;;;;;;;;5018257;28;45278;-71
2021/10/11 16:10:44;;;;;;;;;5.00;3.75;;;;;;;;5016909;28;45453;-70
2021/10/11 16:13:09;;;;;;;;;7.00;5.50;;;;;;;;5017999;28;46362;-72
2021/10/11 16:15:34;;;;;;;;;6.00;6.00;;;;;;;;5018187;28;45208;-72
2021/10/11 16:18:00;;;;;;;;;5.50;4.50;;;;;;;;5016510;28;45345;-71
2021/10/11 16:20:25;;;;;;;;;8.50;8.00;;;;;;;;5018377;28;45454;-73
2021/10/11 16:22:50;;;;;;;;;6.50;5.25;;;;;;;;5017779;28;45522;-70
2021/10/11 16:25:15;;;;;;;;;8.50;7.75;;;;;;;;5017690;28;45791;-69
2021/10/11 16:27:41;;;;;;;;;7.00;6.50;;;;;;;;5018035;28;45943;-70
2021/10/11 16:30:06;;;;;;;;;10.00;8.25;;;;;;;;5018069;28;45378;-67
2021/10/11 16:32:32;;;;;;;;;6.75;5.50;;;;;;;;5016332;28;46893;-71
2021/10/11 16:34:57;;;;;;;;;6.75;5.25;;;;;;;;5016421;28;45373;-72
2021/10/11 16:37:22;;;;;;;;;6.00;6.00;;;;;;;;5017857;28;45269;-70
2021/10/11 16:39:47;;;;;;;;;7.75;4.75;;;;;;;;5017482;28;45343;-66
2021/10/11 16:42:14;;;;;;;;;6.00;5.00;;;;;;;;5017264;28;45563;-69
2021/10/11 16:44:39;;;;;;;;;3.00;3.00;;;;;;;;5017610;28;45400;-70
2021/10/11 16:47:05;;;;;;;;;4.00;4.00;;;;;;;;5017904;28;45394;-69
2021/10/11 16:49:30;;;;;;;;;7.25;6.50;;;;;;;;5017895;28;45415;-68
2021/10/11 16:51:55;;;;;;;;;6.50;5.75;;;;;;;;5017208;28;46867;-68